Time;durP1;ratioP1;P1;durP2;ratioP2;P2;SDS_P1;SDS_P2;PMS_P1;PMS_P2;Temp;Humidity;BMP_temperature;BMP_pressure;BME280_temperature;BME280_humidity;BME280_pressure;Samples;Min_cycle;Max_cycle;Signal;HPM_P1;HPM_P2
2021/05/27 00:01:25;;;;;;;6.65;6.05;;;9.70;95.30;;;;;;5046258;28;20043;-58
2021/05/27 00:03:50;;;;;;;7.43;5.65;;;9.80;95.20;;;;;;5050242;28;20056;-57
2021/05/27 00:06:16;;;;;;;7.20;6.50;;;9.80;95.00;;;;;;5038731;28;20026;-58
2021/05/27 00:08:41;;;;;;;7.20;6.50;;;9.80;95.00;;;;;;5032419;28;20041;-57
2021/05/27 00:11:07;;;;;;;7.70;6.40;;;9.80;95.00;;;;;;5033406;28;20108;-56
2021/05/27 00:13:32;;;;;;;7.07;6.10;;;9.80;94.90;;;;;;5033023;28;20049;-59
2021/05/27 00:15:59;;;;;;;7.15;6.40;;;9.80;95.10;;;;;;5032712;28;20489;-59
2021/05/27 00:18:24;;;;;;;7.95;7.15;;;9.80;95.00;;;;;;5032215;28;20029;-59
2021/05/27 00:20:50;;;;;;;7.00;6.30;;;9.70;95.00;;;;;;5032751;28;20047;-57
2021/05/27 00:23:15;;;;;;;6.95;6.25;;;9.80;95.00;;;;;;5032777;28;20033;-57
2021/05/27 00:25:41;;;;;;;8.65;7.25;;;9.80;95.00;;;;;;5032856;28;20397;-58
2021/05/27 00:28:06;;;;;;;7.93;7.13;;;9.80;94.90;;;;;;5032517;28;20026;-58
2021/05/27 00:30:32;;;;;;;7.97;7.20;;;9.80;94.60;;;;;;5032934;28;20048;-56
2021/05/27 00:32:58;;;;;;;7.15;6.45;;;9.80;95.00;;;;;;5031397;28;20057;-57
2021/05/27 00:35:23;;;;;;;8.02;7.22;;;9.70;95.10;;;;;;5032597;28;20041;-54
2021/05/27 00:37:49;;;;;;;7.38;6.68;;;9.70;95.20;;;;;;5043257;28;20504;-57
2021/05/27 00:40:16;;;;;;;8.40;7.60;;;9.80;95.10;;;;;;5032796;28;20029;-55
2021/05/27 00:42:43;;;;;;;8.35;7.43;;;9.80;95.00;;;;;;5032262;28;20044;-58
2021/05/27 00:45:15;;;;;;;8.38;7.57;;;9.80;95.10;;;;;;5032767;28;20033;-59
2021/05/27 00:47:41;;;;;;;8.90;8.00;;;9.80;95.20;;;;;;5032011;28;20048;-57
2021/05/27 00:50:11;;;;;;;8.48;7.30;;;9.70;95.20;;;;;;5032000;28;20029;-59
2021/05/27 00:52:37;;;;;;;8.52;7.63;;;9.90;94.80;;;;;;5032152;28;20037;-58
2021/05/27 00:55:04;;;;;;;10.70;8.35;;;9.90;94.90;;;;;;5031870;28;20512;-59
2021/05/27 00:57:35;;;;;;;9.73;8.70;;;9.90;94.90;;;;;;5032061;28;20044;-55
2021/05/27 01:00:06;;;;;;;9.60;8.38;;;9.90;95.00;;;;;;5017221;28;20061;-56
2021/05/27 01:02:31;;;;;;;11.02;9.52;;;9.90;95.10;;;;;;5031437;28;20568;-56
2021/05/27 01:04:57;;;;;;;11.40;9.15;;;9.90;94.90;;;;;;5046687;28;20143;-57
2021/05/27 01:07:23;;;;;;;10.35;9.18;;;9.90;95.00;;;;;;5042305;28;20436;-54
2021/05/27 01:09:49;;;;;;;10.55;9.45;;;9.90;95.00;;;;;;5046557;28;20040;-57
2021/05/27 01:12:14;;;;;;;11.23;9.95;;;10.00;94.90;;;;;;5044467;28;20041;-59
2021/05/27 01:17:24;;;;;;;12.40;9.80;;;10.00;94.60;;;;;;5047577;28;20076;-59
2021/05/27 01:19:53;;;;;;;10.18;9.07;;;10.10;94.60;;;;;;5049030;28;20547;-58
2021/05/27 01:22:23;;;;;;;11.05;9.95;;;10.20;94.30;;;;;;5048597;28;20599;-57
2021/05/27 01:24:49;;;;;;;11.20;9.60;;;10.10;94.50;;;;;;5047308;28;20084;-59
2021/05/27 01:27:16;;;;;;;13.40;9.98;;;10.20;94.50;;;;;;5050503;28;20680;-59
2021/05/27 01:29:42;;;;;;;11.27;9.52;;;10.10;94.70;;;;;;5042313;28;20069;-58
2021/05/27 01:32:09;;;;;;;12.18;10.07;;;10.10;94.60;;;;;;5032147;28;20072;-57
2021/05/27 01:34:35;;;;;;;12.35;11.00;;;10.10;94.80;;;;;;5031610;28;20033;-55
2021/05/27 01:37:01;;;;;;;11.27;10.07;;;10.10;94.70;;;;;;5032394;28;20026;-57
2021/05/27 01:39:26;;;;;;;11.75;10.50;;;10.10;94.70;;;;;;5031423;28;20551;-58
2021/05/27 01:41:52;;;;;;;11.02;9.80;;;10.00;94.90;;;;;;5032219;28;20034;-56
2021/05/27 01:44:18;;;;;;;11.95;10.07;;;10.10;94.90;;;;;;5031863;28;20501;-59
2021/05/27 01:46:43;;;;;;;11.52;10.02;;;10.20;94.70;;;;;;5031863;28;20647;-58
2021/05/27 01:49:10;;;;;;;11.73;10.55;;;10.10;94.70;;;;;;5032047;28;20481;-56
2021/05/27 01:51:35;;;;;;;11.75;10.55;;;10.10;94.70;;;;;;5032249;28;20068;-58
2021/05/27 01:54:01;;;;;;;11.80;10.60;;;10.10;94.80;;;;;;5031809;28;20061;-57
2021/05/27 01:56:27;;;;;;;11.70;10.07;;;10.20;94.60;;;;;;5032494;28;20106;-56
2021/05/27 01:59:00;;;;;;;12.43;10.32;;;10.20;94.10;;;;;;5031694;28;20094;-58
2021/05/27 02:01:25;;;;;;;10.90;9.57;;;10.20;94.20;;;;;;5031580;28;20032;-56
2021/05/27 02:03:51;;;;;;;12.77;10.98;;;10.30;93.90;;;;;;5033761;28;20029;-59
2021/05/27 02:06:17;;;;;;;12.15;10.80;;;10.30;94.00;;;;;;5031765;28;20039;-58
2021/05/27 02:09:07;;;;;;;12.68;11.35;;;10.40;93.80;;;;;;5026445;28;20145;-58
2021/05/27 02:11:28;;;;;;;13.18;11.13;;;10.30;93.90;;;;;;5031014;28;20045;-59
2021/05/27 02:13:54;;;;;;;12.52;11.02;;;10.30;94.10;;;;;;5030600;28;20508;-56
2021/05/27 02:16:19;;;;;;;13.32;11.23;;;10.40;93.90;;;;;;5031115;28;20036;-58
2021/05/27 02:18:45;;;;;;;12.70;11.32;;;10.30;94.10;;;;;;5031669;28;20034;-57
2021/05/27 02:21:10;;;;;;;13.20;11.23;;;10.40;93.90;;;;;;5031122;28;20038;-57
2021/05/27 02:23:36;;;;;;;13.57;11.27;;;10.30;94.30;;;;;;5031508;28;20033;-57
2021/05/27 02:26:01;;;;;;;13.25;11.13;;;10.20;94.40;;;;;;5030142;28;20045;-56
2021/05/27 02:28:27;;;;;;;12.63;11.30;;;10.20;94.50;;;;;;5030245;28;20038;-58
2021/05/27 02:30:52;;;;;;;12.93;11.55;;;10.20;94.50;;;;;;5030997;28;20091;-60
2021/05/27 02:33:18;;;;;;;13.10;11.70;;;10.20;94.50;;;;;;5030701;28;20026;-57
2021/05/27 02:35:44;;;;;;;13.93;12.10;;;10.30;94.30;;;;;;5031124;28;20060;-59
2021/05/27 02:38:09;;;;;;;13.45;11.95;;;10.30;94.10;;;;;;5033964;28;20111;-58
2021/05/27 02:40:35;;;;;;;14.02;12.30;;;10.30;94.20;;;;;;5050803;28;20428;-55
2021/05/27 02:43:00;;;;;;;11.95;10.75;;;10.20;94.40;;;;;;5033124;28;20451;-66
2021/05/27 02:45:26;;;;;;;12.80;11.50;;;10.30;94.00;;;;;;5031646;28;20440;-57
2021/05/27 02:47:51;;;;;;;12.48;11.20;;;10.30;94.70;;;;;;5029896;28;20080;-56
2021/05/27 02:50:17;;;;;;;11.20;10.10;;;10.40;94.20;;;;;;5029975;28;20432;-55
2021/05/27 02:52:42;;;;;;;13.65;10.20;;;10.50;93.70;;;;;;5031692;28;20120;-63
2021/05/27 02:55:08;;;;;;;12.57;11.27;;;10.60;94.10;;;;;;5033278;28;20033;-57
2021/05/27 02:57:34;;;;;;;13.70;10.45;;;10.80;93.40;;;;;;5034845;28;20506;-56
2021/05/27 02:59:59;;;;;;;13.07;10.63;;;10.70;93.80;;;;;;5034805;28;20034;-56
2021/05/27 03:02:25;;;;;;;12.48;10.02;;;10.70;93.70;;;;;;5034787;28;20051;-58
2021/05/27 03:04:51;;;;;;;12.38;10.93;;;10.80;93.50;;;;;;5041001;28;20042;-58
2021/05/27 03:07:16;;;;;;;12.23;11.02;;;10.70;93.40;;;;;;5035357;28;20117;-57
2021/05/27 03:09:42;;;;;;;13.82;11.75;;;10.60;93.60;;;;;;5030306;28;20041;-56
2021/05/27 03:12:07;;;;;;;14.57;12.02;;;10.40;93.90;;;;;;5034797;28;20033;-58
2021/05/27 03:14:33;;;;;;;15.07;11.70;;;10.40;94.10;;;;;;5034752;28;20053;-58
2021/05/27 03:16:59;;;;;;;15.10;11.55;;;10.30;94.00;;;;;;5034659;28;20497;-58
2021/05/27 03:19:24;;;;;;;13.63;12.23;;;10.30;94.30;;;;;;5034367;28;20493;-55
2021/05/27 03:21:50;;;;;;;14.80;12.40;;;10.20;94.40;;;;;;5034967;28;20033;-56
2021/05/27 03:24:16;;;;;;;16.40;12.63;;;10.20;94.30;;;;;;5033137;28;20037;-58
2021/05/27 03:26:42;;;;;;;12.98;11.50;;;10.20;94.50;;;;;;5034828;28;20041;-57
2021/05/27 03:29:07;;;;;;;13.80;12.35;;;10.20;94.80;;;;;;5034161;28;20048;-57
2021/05/27 03:31:33;;;;;;;18.15;11.75;;;10.20;94.60;;;;;;5034878;28;20119;-56
2021/05/27 03:33:58;;;;;;;13.27;11.55;;;10.20;94.60;;;;;;5034483;28;20030;-55
2021/05/27 03:36:24;;;;;;;14.35;11.95;;;10.30;94.40;;;;;;5034147;28;20037;-53
2021/05/27 03:38:49;;;;;;;15.23;12.13;;;10.30;94.80;;;;;;5034037;28;20461;-52
2021/05/27 03:41:15;;;;;;;13.35;12.02;;;10.30;94.50;;;;;;5034245;28;20033;-56
2021/05/27 03:43:41;;;;;;;15.23;12.25;;;10.30;94.30;;;;;;5034147;28;20048;-56
2021/05/27 03:46:06;;;;;;;13.18;11.65;;;10.40;94.30;;;;;;5033206;28;20022;-56
2021/05/27 03:48:32;;;;;;;12.80;10.90;;;10.50;94.40;;;;;;5034233;28;20485;-56
2021/05/27 03:50:57;;;;;;;13.50;12.10;;;10.50;94.10;;;;;;5033372;28;20033;-55
2021/05/27 03:53:23;;;;;;;12.52;11.32;;;10.50;94.00;;;;;;5034423;28;20029;-55
2021/05/27 03:55:48;;;;;;;14.38;11.90;;;10.50;94.00;;;;;;5034245;28;20061;-56
2021/05/27 04:00:58;;;;;;;12.20;10.93;;;10.50;94.20;;;;;;5032653;28;20030;-55
2021/05/27 04:03:24;;;;;;;15.02;11.93;;;10.60;94.40;;;;;;5032153;28;20164;-58
2021/05/27 04:08:34;;;;;;;13.30;11.73;;;10.70;93.90;;;;;;5033494;28;20030;-59
2021/05/27 04:11:01;;;;;;;14.40;12.77;;;10.70;93.90;;;;;;5033056;28;20485;-58
2021/05/27 04:13:27;;;;;;;13.82;12.25;;;10.60;94.20;;;;;;5033713;28;20037;-57
2021/05/27 04:15:52;;;;;;;12.35;11.07;;;10.70;94.10;;;;;;5033371;28;20107;-58
2021/05/27 04:18:19;;;;;;;18.25;12.00;;;10.70;94.00;;;;;;5033728;28;20076;-58
2021/05/27 04:20:54;;;;;;;13.07;11.68;;;10.70;93.80;;;;;;5032872;28;20034;-58
2021/05/27 04:23:38;;;;;;;14.52;11.05;;;10.70;93.80;;;;;;5033797;28;20041;-56
2021/05/27 04:26:12;;;;;;;12.57;10.75;;;10.60;93.80;;;;;;5027405;28;20033;-58
2021/05/27 04:28:39;;;;;;;16.05;10.85;;;10.80;94.10;;;;;;5031481;28;20060;-57
2021/05/27 04:31:09;;;;;;;13.20;11.23;;;10.80;93.60;;;;;;5047574;28;20095;-58
2021/05/27 04:33:45;;;;;;;12.40;11.10;;;10.80;93.70;;;;;;5038879;28;20071;-59
2021/05/27 04:36:15;;;;;;;17.45;11.75;;;10.80;93.40;;;;;;5033429;28;20083;-57
2021/05/27 04:38:42;;;;;;;11.77;10.43;;;10.80;93.50;;;;;;5025763;28;20079;-55
2021/05/27 04:41:08;;;;;;;12.35;11.15;;;10.80;93.50;;;;;;5032831;28;20129;-59
2021/05/27 04:43:35;;;;;;;12.57;11.32;;;10.70;93.60;;;;;;5033351;28;20061;-56
2021/05/27 04:46:01;;;;;;;14.20;12.23;;;10.80;93.50;;;;;;5033222;28;20037;-54
2021/05/27 04:48:26;;;;;;;18.85;12.32;;;10.90;93.50;;;;;;5032963;28;20053;-57
2021/05/27 04:50:53;;;;;;;14.45;11.77;;;10.80;93.40;;;;;;5032892;28;20033;-55
2021/05/27 04:53:20;;;;;;;16.90;12.18;;;10.80;93.60;;;;;;5031757;28;20675;-57
2021/05/27 04:55:46;;;;;;;13.35;11.95;;;10.90;93.50;;;;;;5033975;28;20125;-56
2021/05/27 04:58:12;;;;;;;19.77;12.70;;;10.90;93.50;;;;;;5033036;28;20104;-58
2021/05/27 05:00:38;;;;;;;13.98;12.48;;;10.80;93.60;;;;;;5033946;28;20044;-58
2021/05/27 05:03:04;;;;;;;14.10;12.70;;;10.80;93.70;;;;;;5034023;28;20025;-58
2021/05/27 05:05:31;;;;;;;14.50;12.30;;;10.80;93.70;;;;;;5035132;28;20101;-58
2021/05/27 05:07:57;;;;;;;15.65;12.60;;;10.80;93.70;;;;;;5032385;28;20072;-58
2021/05/27 05:10:24;;;;;;;12.88;11.63;;;10.90;93.50;;;;;;5032783;28;20067;-58
2021/05/27 05:12:51;;;;;;;14.02;11.80;;;10.90;93.60;;;;;;5032136;28;20083;-57
2021/05/27 05:15:19;;;;;;;14.32;12.52;;;10.90;93.60;;;;;;5033100;28;20524;-53
2021/05/27 05:18:05;;;;;;;17.00;12.05;;;10.90;93.60;;;;;;5031681;28;20052;-57
2021/05/27 05:20:36;;;;;;;13.63;12.20;;;11.00;93.50;;;;;;5032240;28;20191;-56
2021/05/27 05:23:03;;;;;;;15.20;13.25;;;11.00;93.50;;;;;;5032219;28;20041;-57
2021/05/27 05:25:30;;;;;;;13.35;11.98;;;11.00;93.40;;;;;;5032155;28;20107;-58
2021/05/27 05:27:56;;;;;;;12.80;11.50;;;11.00;93.50;;;;;;5032883;28;20120;-58
2021/05/27 05:30:23;;;;;;;12.30;11.00;;;11.00;93.50;;;;;;5033385;28;20148;-56
2021/05/27 05:32:49;;;;;;;13.07;11.68;;;11.10;93.60;;;;;;5022412;28;20032;-58
2021/05/27 05:35:17;;;;;;;12.52;10.68;;;11.10;93.00;;;;;;5035601;28;20072;-54
2021/05/27 05:37:43;;;;;;;12.55;11.05;;;11.00;93.30;;;;;;5034184;28;20033;-57
2021/05/27 05:40:11;;;;;;;14.30;11.20;;;11.00;93.20;;;;;;5034626;28;20104;-58
2021/05/27 05:42:38;;;;;;;12.82;11.45;;;11.10;93.20;;;;;;5045365;28;20037;-58
2021/05/27 05:45:04;;;;;;;12.60;11.30;;;11.10;93.10;;;;;;5033538;28;20036;-57
2021/05/27 05:47:30;;;;;;;13.35;11.25;;;11.10;92.90;;;;;;5031388;28;20072;-57
2021/05/27 05:49:56;;;;;;;13.88;10.27;;;11.00;93.10;;;;;;5033314;28;20437;-58
2021/05/27 05:52:21;;;;;;;15.57;10.98;;;11.10;92.90;;;;;;5032746;28;20038;-58
2021/05/27 05:54:47;;;;;;;11.25;10.02;;;11.00;93.10;;;;;;5032304;28;20091;-59
2021/05/27 05:57:13;;;;;;;13.57;10.30;;;11.00;92.90;;;;;;5033042;28;20034;-54
2021/05/27 05:59:38;;;;;;;11.55;9.73;;;11.10;92.80;;;;;;5032766;28;20037;-53
2021/05/27 06:02:04;;;;;;;10.90;9.80;;;11.10;92.90;;;;;;5033086;28;20029;-58
2021/05/27 06:04:31;;;;;;;12.07;10.18;;;11.20;92.70;;;;;;5039066;28;20108;-56
2021/05/27 06:06:56;;;;;;;10.88;9.75;;;11.30;92.60;;;;;;5031783;28;21187;-57
2021/05/27 06:09:24;;;;;;;10.55;9.43;;;11.20;92.70;;;;;;5031916;28;20104;-58
2021/05/27 06:11:50;;;;;;;12.93;9.27;;;11.20;92.70;;;;;;5031641;28;20025;-56
2021/05/27 06:14:15;;;;;;;11.85;9.85;;;11.30;92.70;;;;;;5032082;28;20509;-57
2021/05/27 06:16:41;;;;;;;10.93;9.77;;;11.30;92.50;;;;;;5031953;28;20033;-56
2021/05/27 06:19:06;;;;;;;10.70;9.48;;;11.30;92.60;;;;;;5031941;28;20049;-58
2021/05/27 06:21:33;;;;;;;11.55;9.10;;;11.30;92.60;;;;;;5031820;28;20433;-59
2021/05/27 06:23:59;;;;;;;12.70;10.43;;;11.20;92.70;;;;;;5031503;28;20385;-57
2021/05/27 06:26:24;;;;;;;9.82;8.93;;;11.20;92.70;;;;;;5031892;28;20097;-57
2021/05/27 06:28:50;;;;;;;11.85;9.80;;;11.20;92.80;;;;;;5017028;28;20038;-57
2021/05/27 06:31:15;;;;;;;11.43;9.68;;;11.20;92.80;;;;;;5034997;28;20044;-56
2021/05/27 06:33:41;;;;;;;10.20;9.00;;;11.30;92.60;;;;;;5035880;28;20037;-57
2021/05/27 06:36:07;;;;;;;11.45;10.07;;;11.40;92.60;;;;;;5035419;28;20037;-54
2021/05/27 06:38:33;;;;;;;16.30;9.88;;;11.30;93.10;;;;;;5035752;28;20036;-58
2021/05/27 06:40:58;;;;;;;11.00;9.95;;;11.20;92.80;;;;;;5035113;28;20034;-58
2021/05/27 06:43:24;;;;;;;12.07;9.55;;;11.20;93.00;;;;;;5035121;28;20079;-58
2021/05/27 06:45:49;;;;;;;11.35;10.18;;;11.20;93.00;;;;;;5035285;28;20037;-56
2021/05/27 06:48:15;;;;;;;10.57;9.55;;;11.10;93.20;;;;;;5035633;28;20044;-57
2021/05/27 06:50:41;;;;;;;11.00;9.80;;;11.20;93.10;;;;;;5034848;28;20113;-56
2021/05/27 06:53:09;;;;;;;11.55;10.35;;;11.20;93.40;;;;;;5036089;28;20032;-57
2021/05/27 06:55:36;;;;;;;11.45;10.07;;;11.20;93.30;;;;;;5034961;28;20033;-57
2021/05/27 06:58:02;;;;;;;12.95;10.95;;;11.20;93.50;;;;;;5035086;28;20030;-58
2021/05/27 07:00:28;;;;;;;12.07;10.88;;;11.20;93.70;;;;;;5035950;28;20393;-59
2021/05/27 07:02:55;;;;;;;8.98;7.80;;;11.20;94.10;;;;;;5035946;28;20179;-54
2021/05/27 07:05:21;;;;;;;6.53;5.30;;;11.00;93.70;;;;;;5039033;28;20064;-56
2021/05/27 07:07:47;;;;;;;5.88;5.15;;;10.90;93.10;;;;;;5034758;28;20053;-57
2021/05/27 07:10:14;;;;;;;6.93;5.65;;;10.60;93.60;;;;;;5031127;28;20061;-55
2021/05/27 07:12:46;;;;;;;5.50;4.20;;;10.50;94.60;;;;;;5034742;28;20033;-58
2021/05/27 07:15:13;;;;;;;5.18;3.92;;;10.30;95.10;;;;;;5035146;28;20032;-56
2021/05/27 07:17:38;;;;;;;5.45;4.05;;;10.10;95.60;;;;;;5035189;28;20056;-56
2021/05/27 07:20:04;;;;;;;2.92;2.63;;;10.00;95.70;;;;;;5036372;28;20045;-55
2021/05/27 07:22:33;;;;;;;5.63;3.80;;;10.00;95.50;;;;;;5034068;28;20033;-52
2021/05/27 07:24:58;;;;;;;3.92;2.80;;;9.90;96.20;;;;;;5035243;28;20497;-56
2021/05/27 07:27:24;;;;;;;3.65;3.03;;;9.80;96.10;;;;;;5037535;28;20049;-59
2021/05/27 07:29:49;;;;;;;3.97;2.53;;;9.80;96.70;;;;;;5056489;28;20040;-57
2021/05/27 07:32:16;;;;;;;2.60;2.38;;;9.80;96.20;;;;;;5052951;28;20052;-58
2021/05/27 07:34:44;;;;;;;5.05;2.50;;;9.90;96.30;;;;;;5040755;28;20091;-55
2021/05/27 07:37:10;;;;;;;2.80;2.50;;;9.90;96.40;;;;;;5021553;28;20037;-57
2021/05/27 07:39:36;;;;;;;2.90;2.60;;;9.80;96.70;;;;;;5034509;28;20048;-55
2021/05/27 07:42:06;;;;;;;3.65;2.65;;;10.00;96.50;;;;;;5043903;28;20451;-58
2021/05/27 07:44:32;;;;;;;8.05;2.63;;;10.30;95.90;;;;;;5048321;28;20036;-57
2021/05/27 07:46:57;;;;;;;4.25;2.70;;;10.10;95.90;;;;;;5045763;28;20104;-58
2021/05/27 07:49:23;;;;;;;3.85;2.80;;;10.10;96.20;;;;;;5053294;28;20434;-56
2021/05/27 07:51:49;;;;;;;3.40;2.78;;;10.20;96.20;;;;;;5051163;28;20041;-56
2021/05/27 07:54:14;;;;;;;3.05;2.50;;;10.20;96.20;;;;;;5051732;28;20362;-54
2021/05/27 07:56:40;;;;;;;3.63;2.40;;;10.30;95.90;;;;;;5051168;28;20049;-58
2021/05/27 07:59:06;;;;;;;3.22;2.78;;;10.30;95.90;;;;;;5052699;28;20455;-58
2021/05/27 08:01:34;;;;;;;2.80;2.42;;;10.20;96.50;;;;;;5049177;28;20029;-59
2021/05/27 08:04:00;;;;;;;2.80;2.30;;;10.20;96.30;;;;;;5051473;28;20025;-61
2021/05/27 08:06:26;;;;;;;3.17;2.78;;;10.00;96.40;;;;;;5047706;28;20033;-60
2021/05/27 08:08:51;;;;;;;3.45;2.33;;;10.10;96.10;;;;;;5051581;28;20032;-58
2021/05/27 08:12:20;;;;;;;;;;;;;;;;;;;;;
2021/05/27 08:14:30;;;;;;;2.90;2.30;;;9.90;96.20;;;;;;5050013;28;20029;-58
2021/05/27 08:16:56;;;;;;;2.25;2.03;;;10.00;96.20;;;;;;5047476;28;20031;-60
2021/05/27 08:19:22;;;;;;;3.70;2.30;;;10.10;96.20;;;;;;5052961;28;20436;-60
2021/05/27 08:21:48;;;;;;;2.35;2.15;;;9.90;96.70;;;;;;5033549;28;20041;-60
2021/05/27 08:24:13;;;;;;;3.42;2.58;;;10.00;96.50;;;;;;5049043;28;20550;-61
2021/05/27 08:26:39;;;;;;;2.78;2.13;;;9.90;96.60;;;;;;5031295;28;20496;-63
2021/05/27 08:29:04;;;;;;;3.90;2.15;;;9.90;96.70;;;;;;5033522;28;20037;-63
2021/05/27 08:31:31;;;;;;;2.63;1.92;;;10.00;96.30;;;;;;5031051;28;20030;-63
2021/05/27 08:33:57;;;;;;;3.72;2.00;;;9.80;96.80;;;;;;5034774;28;20037;-60
2021/05/27 08:36:25;;;;;;;2.33;2.00;;;10.00;96.70;;;;;;5034898;28;20133;-62
2021/05/27 08:38:50;;;;;;;2.65;1.92;;;9.90;96.60;;;;;;5036227;28;20080;-63
2021/05/27 08:41:20;;;;;;;3.03;2.13;;;10.10;96.50;;;;;;5035004;28;20041;-62
2021/05/27 08:43:49;;;;;;;5.18;1.92;;;10.20;96.50;;;;;;5037135;28;20022;-58
2021/05/27 08:46:15;;;;;;;1.85;1.75;;;10.20;96.20;;;;;;5036729;28;20040;-57
2021/05/27 08:48:42;;;;;;;2.78;1.83;;;10.10;96.50;;;;;;5035917;28;20045;-58
2021/05/27 08:51:09;;;;;;;4.32;2.17;;;10.20;96.50;;;;;;5034371;28;20039;-62
2021/05/27 08:53:35;;;;;;;9.15;2.30;;;10.20;96.60;;;;;;5033401;28;20029;-61
2021/05/27 08:56:00;;;;;;;3.28;2.08;;;10.30;96.20;;;;;;5036203;28;20513;-59
2021/05/27 08:58:26;;;;;;;3.55;1.88;;;10.40;96.50;;;;;;5036180;28;20034;-62
2021/05/27 09:00:53;;;;;;;3.13;2.03;;;10.50;96.20;;;;;;5038419;28;20096;-59
2021/05/27 09:03:19;;;;;;;2.58;1.95;;;10.40;96.10;;;;;;5036469;28;20077;-59
2021/05/27 09:05:45;;;;;;;3.05;1.90;;;10.40;96.40;;;;;;5040755;28;20039;-60
2021/05/27 09:08:28;;;;;;;2.70;2.00;;;10.50;96.50;;;;;;5032470;28;20053;-59
2021/05/27 09:10:55;;;;;;;2.30;2.10;;;10.60;96.30;;;;;;5042621;28;20112;-59
2021/05/27 09:13:21;;;;;;;2.25;2.00;;;10.70;96.30;;;;;;5033167;28;20026;-59
2021/05/27 09:15:50;;;;;;;3.63;2.90;;;10.60;96.20;;;;;;5032563;28;20504;-60
2021/05/27 09:18:32;;;;;;;3.28;2.22;;;10.80;96.10;;;;;;5041534;28;20052;-60
2021/05/27 09:20:58;;;;;;;3.00;2.33;;;10.90;96.40;;;;;;5031468;28;20041;-58
2021/05/27 09:23:24;;;;;;;2.50;2.30;;;10.90;95.90;;;;;;5032691;28;20088;-61
2021/05/27 09:25:51;;;;;;;2.20;2.00;;;11.10;95.70;;;;;;5032253;28;20030;-57
2021/05/27 09:28:20;;;;;;;2.15;1.95;;;11.20;95.60;;;;;;5032169;28;20030;-59
2021/05/27 09:30:48;;;;;;;2.30;1.98;;;11.40;95.30;;;;;;5032398;28;20144;-58
2021/05/27 09:33:15;;;;;;;2.13;1.92;;;11.30;94.90;;;;;;5032451;28;20037;-60
2021/05/27 09:35:41;;;;;;;2.80;2.35;;;11.30;95.20;;;;;;5033005;28;20039;-58
2021/05/27 09:38:08;;;;;;;3.80;2.40;;;11.30;95.40;;;;;;5032245;28;20566;-61
2021/05/27 09:40:40;;;;;;;4.68;2.85;;;11.50;95.60;;;;;;5032230;28;20078;-59
2021/05/27 09:43:07;;;;;;;2.65;2.40;;;11.80;95.20;;;;;;5026062;28;20029;-57
2021/05/27 09:45:37;;;;;;;3.63;2.55;;;12.00;94.70;;;;;;5033069;28;20403;-57
2021/05/27 09:48:22;;;;;;;4.93;2.50;;;11.90;94.80;;;;;;5032423;28;20128;-58
2021/05/27 09:50:48;;;;;;;2.97;2.20;;;12.00;95.00;;;;;;5032414;28;20029;-57
2021/05/27 09:53:20;;;;;;;3.63;2.53;;;12.00;94.50;;;;;;5023477;28;20034;-58
2021/05/27 09:55:46;;;;;;;2.42;2.20;;;12.10;94.70;;;;;;5032359;28;20072;-59
2021/05/27 09:58:14;;;;;;;2.70;2.42;;;12.20;94.50;;;;;;5031288;28;20381;-59
2021/05/27 10:00:41;;;;;;;2.55;2.30;;;12.30;94.50;;;;;;5031243;28;20044;-58
2021/05/27 10:03:36;;;;;;;3.22;2.22;;;12.20;94.00;;;;;;5031942;28;20133;-58
2021/05/27 10:06:12;;;;;;;2.55;2.35;;;12.20;94.50;;;;;;5021633;28;20026;-59
2021/05/27 10:08:56;;;;;;;3.65;2.00;;;12.20;94.40;;;;;;5030324;28;20068;-59
2021/05/27 10:11:24;;;;;;;2.27;2.07;;;12.20;94.50;;;;;;5030702;28;20037;-59
2021/05/27 10:13:57;;;;;;;2.75;2.53;;;12.20;95.20;;;;;;5033312;28;20342;-60
2021/05/27 10:16:23;;;;;;;4.18;3.30;;;12.20;94.70;;;;;;5032204;28;20075;-60
2021/05/27 10:18:50;;;;;;;3.15;2.80;;;12.20;94.60;;;;;;5030782;28;20116;-60
2021/05/27 10:21:15;;;;;;;3.40;2.67;;;12.40;94.40;;;;;;5032451;28;20030;-59
2021/05/27 10:23:41;;;;;;;2.50;2.30;;;12.30;95.10;;;;;;5030698;28;20041;-58
2021/05/27 10:26:07;;;;;;;3.03;2.60;;;12.30;94.70;;;;;;5031923;28;20367;-60
2021/05/27 10:28:34;;;;;;;4.38;2.70;;;12.20;94.80;;;;;;5040828;28;20123;-60
2021/05/27 10:31:01;;;;;;;6.03;2.47;;;12.40;94.50;;;;;;5046806;28;20500;-60
2021/05/27 10:33:26;;;;;;;3.05;2.70;;;12.10;94.90;;;;;;5039306;28;20036;-59
2021/05/27 10:36:00;;;;;;;3.25;2.63;;;11.80;95.70;;;;;;5041316;28;20116;-62
2021/05/27 10:41:05;;;;;;;3.30;2.88;;;11.50;96.00;;;;;;5032692;28;20034;-60
2021/05/27 10:43:30;;;;;;;4.05;3.22;;;11.40;96.40;;;;;;5031896;28;20022;-60
2021/05/27 10:45:59;;;;;;;4.72;3.25;;;11.30;96.70;;;;;;5029816;28;20041;-60
2021/05/27 10:48:25;;;;;;;4.70;2.90;;;11.30;96.50;;;;;;5039584;28;20044;-61
2021/05/27 10:53:39;;;;;;;4.35;3.40;;;11.50;96.50;;;;;;5035815;28;20440;-61
2021/05/27 10:56:15;;;;;;;4.82;2.95;;;11.40;96.60;;;;;;5038768;28;20072;-60
2021/05/27 10:58:49;;;;;;;3.65;3.10;;;11.30;96.70;;;;;;5044375;28;20116;-60
2021/05/27 11:01:18;;;;;;;5.38;3.30;;;11.30;97.00;;;;;;5042281;28;20032;-58
2021/05/27 11:03:49;;;;;;;3.22;2.92;;;11.40;97.20;;;;;;5030273;28;20111;-60
2021/05/27 11:06:22;;;;;;;4.57;2.65;;;11.50;96.50;;;;;;5039576;28;20113;-57
2021/05/27 11:09:07;;;;;;;3.30;2.95;;;11.60;96.80;;;;;;5034906;28;20053;-59
2021/05/27 11:11:46;;;;;;;4.38;3.03;;;11.70;96.30;;;;;;5032919;28;20048;-58
2021/05/27 11:14:40;;;;;;;4.00;2.88;;;11.70;96.80;;;;;;5046645;28;20037;-56
2021/05/27 11:17:16;;;;;;;4.57;3.85;;;12.00;96.10;;;;;;5052717;28;20048;-57
2021/05/27 11:27:41;;;;;;;2.60;2.40;;;12.50;95.20;;;;;;5047662;28;20060;-56
2021/05/27 11:30:21;;;;;;;2.88;2.50;;;12.80;94.30;;;;;;5054080;28;20151;-52
2021/05/27 11:33:00;;;;;;;2.63;2.42;;;12.80;95.10;;;;;;5052310;28;20414;-55
2021/05/27 11:35:29;;;;;;;3.03;2.70;;;12.80;94.30;;;;;;5042160;28;20059;-57
2021/05/27 11:37:56;;;;;;;4.85;3.40;;;12.90;94.50;;;;;;5055661;28;20032;-56
2021/05/27 11:40:28;;;;;;;3.25;2.80;;;12.80;93.70;;;;;;5050404;28;20059;-50
2021/05/27 11:42:55;;;;;;;2.85;2.55;;;12.90;94.20;;;;;;5033405;28;20457;-55
2021/05/27 11:45:23;;;;;;;3.05;2.75;;;13.00;93.70;;;;;;5034234;28;20065;-53
2021/05/27 11:48:08;;;;;;;3.83;2.75;;;12.90;93.40;;;;;;5034170;28;20030;-52
2021/05/27 11:50:34;;;;;;;6.80;3.40;;;12.70;93.40;;;;;;5029572;28;20061;-54
2021/05/27 11:52:59;;;;;;;2.80;2.55;;;12.50;93.70;;;;;;5035156;28;20706;-55
2021/05/27 11:55:27;;;;;;;5.07;2.90;;;12.40;93.50;;;;;;5034015;28;20061;-54
2021/05/27 11:57:53;;;;;;;7.25;3.20;;;12.40;93.30;;;;;;5034980;28;20025;-54
2021/05/27 12:00:20;;;;;;;4.95;2.85;;;12.30;93.80;;;;;;5034258;28;20091;-54
2021/05/27 12:02:47;;;;;;;2.63;2.40;;;12.30;94.10;;;;;;5033895;28;20060;-51
2021/05/27 12:05:28;;;;;;;3.03;2.70;;;12.10;94.50;;;;;;5039451;28;20025;-55
2021/05/27 12:07:57;;;;;;;3.47;2.55;;;12.10;94.90;;;;;;5034554;28;20051;-60
2021/05/27 12:10:25;;;;;;;4.30;2.70;;;12.20;94.50;;;;;;5035607;28;20053;-60
2021/05/27 12:12:50;;;;;;;3.92;2.53;;;12.20;94.40;;;;;;5036514;28;20083;-61
2021/05/27 12:15:18;;;;;;;3.30;2.80;;;12.10;94.80;;;;;;5034205;28;20425;-60
2021/05/27 12:17:46;;;;;;;3.10;2.80;;;12.10;95.00;;;;;;5033569;28;20033;-59
2021/05/27 12:20:15;;;;;;;3.00;2.70;;;11.90;95.50;;;;;;5033925;28;20036;-58
2021/05/27 12:22:55;;;;;;;4.60;2.80;;;12.00;95.20;;;;;;5047033;28;20049;-57
2021/05/27 12:25:29;;;;;;;3.45;2.95;;;12.00;95.00;;;;;;5032353;28;20030;-57
2021/05/27 12:28:00;;;;;;;3.35;2.80;;;12.20;94.80;;;;;;5032003;28;20076;-57
2021/05/27 12:30:32;;;;;;;2.80;2.60;;;12.10;95.10;;;;;;5034601;28;20557;-59
2021/05/27 12:33:00;;;;;;;3.33;2.90;;;12.20;94.90;;;;;;5030647;28;20501;-56
2021/05/27 12:35:32;;;;;;;3.03;2.72;;;12.20;94.90;;;;;;5034820;28;20038;-58
2021/05/27 12:37:59;;;;;;;5.05;3.00;;;12.30;95.20;;;;;;5039876;28;20520;-56
2021/05/27 12:40:35;;;;;;;4.07;2.78;;;12.50;94.90;;;;;;5047095;28;20500;-55
2021/05/27 12:43:03;;;;;;;3.95;2.65;;;12.90;94.60;;;;;;5036050;28;20041;-53
2021/05/27 12:45:32;;;;;;;2.88;2.58;;;13.20;93.40;;;;;;5037697;28;20511;-56
2021/05/27 12:48:06;;;;;;;3.20;2.72;;;13.40;93.20;;;;;;5032791;28;20045;-57
2021/05/27 12:50:32;;;;;;;2.38;2.17;;;13.20;92.70;;;;;;5026324;28;20084;-53
2021/05/27 12:52:59;;;;;;;2.60;2.40;;;13.10;92.90;;;;;;5019032;28;20022;-55
2021/05/27 12:55:33;;;;;;;2.53;2.33;;;13.10;93.20;;;;;;5031439;28;20505;-51
2021/05/27 12:57:59;;;;;;;3.22;2.20;;;13.10;93.40;;;;;;5030748;28;20036;-55
2021/05/27 13:00:26;;;;;;;3.00;2.70;;;13.10;92.90;;;;;;5030519;28;20049;-53
2021/05/27 13:03:07;;;;;;;2.65;2.35;;;13.20;92.80;;;;;;5030151;28;20045;-56
2021/05/27 13:05:33;;;;;;;3.33;2.80;;;13.30;92.50;;;;;;5039065;28;20437;-52